sensor_id;sensor_type;location;lat;lon;timestamp;P1;durP1;ratioP1;P2;durP2;ratioP2
65174;SDS011;51761;42.126;24.752;2023-03-23T00:04:57;43.20;;;21.00;;
65174;SDS011;51761;42.126;24.752;2023-03-23T00:07:25;42.70;;;21.42;;
65174;SDS011;51761;42.126;24.752;2023-03-23T00:09:52;36.90;;;20.48;;
65174;SDS011;51761;42.126;24.752;2023-03-23T00:12:37;35.35;;;19.13;;
65174;SDS011;51761;42.126;24.752;2023-03-23T00:15:07;46.70;;;22.38;;
65174;SDS011;51761;42.126;24.752;2023-03-23T00:17:38;36.88;;;20.00;;
65174;SDS011;51761;42.126;24.752;2023-03-23T00:20:04;39.67;;;21.20;;
65174;SDS011;51761;42.126;24.752;2023-03-23T00:22:30;42.17;;;21.20;;
65174;SDS011;51761;42.126;24.752;2023-03-23T00:25:02;47.83;;;22.67;;
65174;SDS011;51761;42.126;24.752;2023-03-23T00:27:30;41.47;;;21.33;;
65174;SDS011;51761;42.126;24.752;2023-03-23T00:29:56;42.95;;;21.15;;
65174;SDS011;51761;42.126;24.752;2023-03-23T00:32:22;45.85;;;22.50;;
65174;SDS011;51761;42.126;24.752;2023-03-23T00:34:52;40.72;;;20.27;;
65174;SDS011;51761;42.126;24.752;2023-03-23T00:37:18;39.00;;;18.98;;
65174;SDS011;51761;42.126;24.752;2023-03-23T00:39:44;42.75;;;22.05;;
65174;SDS011;51761;42.126;24.752;2023-03-23T00:42:14;61.60;;;21.42;;
65174;SDS011;51761;42.126;24.752;2023-03-23T00:44:41;37.35;;;20.60;;
65174;SDS011;51761;42.126;24.752;2023-03-23T00:47:08;41.67;;;22.52;;
65174;SDS011;51761;42.126;24.752;2023-03-23T00:49:36;46.47;;;23.58;;
65174;SDS011;51761;42.126;24.752;2023-03-23T00:52:03;44.60;;;21.90;;
65174;SDS011;51761;42.126;24.752;2023-03-23T00:54:31;45.40;;;22.35;;
65174;SDS011;51761;42.126;24.752;2023-03-23T00:56:56;43.03;;;21.75;;
65174;SDS011;51761;42.126;24.752;2023-03-23T00:59:22;44.88;;;22.08;;
65174;SDS011;51761;42.126;24.752;2023-03-23T01:01:47;43.72;;;21.88;;
65174;SDS011;51761;42.126;24.752;2023-03-23T01:04:14;48.95;;;23.42;;
65174;SDS011;51761;42.126;24.752;2023-03-23T01:06:41;46.80;;;24.10;;
65174;SDS011;51761;42.126;24.752;2023-03-23T01:09:09;51.17;;;21.83;;
65174;SDS011;51761;42.126;24.752;2023-03-23T01:11:40;48.20;;;23.60;;
65174;SDS011;51761;42.126;24.752;2023-03-23T01:14:07;45.90;;;22.80;;
65174;SDS011;51761;42.126;24.752;2023-03-23T01:16:33;49.28;;;25.33;;
65174;SDS011;51761;42.126;24.752;2023-03-23T01:18:59;49.53;;;24.35;;
65174;SDS011;51761;42.126;24.752;2023-03-23T01:21:24;45.17;;;23.15;;
65174;SDS011;51761;42.126;24.752;2023-03-23T01:23:50;45.25;;;23.05;;
65174;SDS011;51761;42.126;24.752;2023-03-23T01:26:17;53.03;;;24.25;;
65174;SDS011;51761;42.126;24.752;2023-03-23T01:28:44;47.22;;;23.08;;
65174;SDS011;51761;42.126;24.752;2023-03-23T01:31:11;46.85;;;23.58;;
65174;SDS011;51761;42.126;24.752;2023-03-23T01:33:39;49.53;;;24.60;;
65174;SDS011;51761;42.126;24.752;2023-03-23T01:36:06;57.30;;;25.83;;
65174;SDS011;51761;42.126;24.752;2023-03-23T01:38:45;47.30;;;22.98;;
65174;SDS011;51761;42.126;24.752;2023-03-23T01:41:12;47.75;;;23.67;;
65174;SDS011;51761;42.126;24.752;2023-03-23T01:43:55;49.95;;;24.05;;
65174;SDS011;51761;42.126;24.752;2023-03-23T01:48:53;51.97;;;26.02;;
65174;SDS011;51761;42.126;24.752;2023-03-23T01:51:21;51.17;;;26.15;;
65174;SDS011;51761;42.126;24.752;2023-03-23T01:53:48;54.22;;;27.05;;
65174;SDS011;51761;42.126;24.752;2023-03-23T01:56:18;50.22;;;27.65;;
65174;SDS011;51761;42.126;24.752;2023-03-23T01:58:50;59.95;;;30.13;;
65174;SDS011;51761;42.126;24.752;2023-03-23T02:01:16;52.05;;;28.13;;
65174;SDS011;51761;42.126;24.752;2023-03-23T02:03:43;48.03;;;26.55;;
65174;SDS011;51761;42.126;24.752;2023-03-23T02:06:11;53.90;;;27.67;;
65174;SDS011;51761;42.126;24.752;2023-03-23T02:08:37;51.08;;;24.33;;
65174;SDS011;51761;42.126;24.752;2023-03-23T02:11:12;54.45;;;26.00;;
65174;SDS011;51761;42.126;24.752;2023-03-23T02:13:42;56.50;;;24.88;;
65174;SDS011;51761;42.126;24.752;2023-03-23T02:16:30;47.17;;;23.67;;
65174;SDS011;51761;42.126;24.752;2023-03-23T02:30:04;50.42;;;24.08;;
65174;SDS011;51761;42.126;24.752;2023-03-23T02:35:44;51.78;;;24.35;;
65174;SDS011;51761;42.126;24.752;2023-03-23T02:38:20;53.30;;;25.05;;
65174;SDS011;51761;42.126;24.752;2023-03-23T02:40:53;50.25;;;25.23;;
65174;SDS011;51761;42.126;24.752;2023-03-23T02:43:22;52.25;;;26.13;;
65174;SDS011;51761;42.126;24.752;2023-03-23T02:45:50;50.67;;;25.60;;
65174;SDS011;51761;42.126;24.752;2023-03-23T02:48:17;54.85;;;26.45;;
65174;SDS011;51761;42.126;24.752;2023-03-23T02:50:47;58.22;;;28.92;;
65174;SDS011;51761;42.126;24.752;2023-03-23T02:53:18;58.90;;;28.42;;
65174;SDS011;51761;42.126;24.752;2023-03-23T02:55:48;63.42;;;30.58;;
65174;SDS011;51761;42.126;24.752;2023-03-23T02:58:18;69.65;;;30.98;;
65174;SDS011;51761;42.126;24.752;2023-03-23T03:00:44;75.97;;;31.13;;
65174;SDS011;51761;42.126;24.752;2023-03-23T03:03:15;65.18;;;29.27;;
65174;SDS011;51761;42.126;24.752;2023-03-23T03:08:34;78.10;;;30.58;;
65174;SDS011;51761;42.126;24.752;2023-03-23T03:11:13;71.70;;;30.08;;
65174;SDS011;51761;42.126;24.752;2023-03-23T03:21:46;77.55;;;29.35;;
65174;SDS011;51761;42.126;24.752;2023-03-23T03:24:15;67.53;;;28.77;;
65174;SDS011;51761;42.126;24.752;2023-03-23T03:26:48;67.07;;;28.17;;
65174;SDS011;51761;42.126;24.752;2023-03-23T03:29:17;65.28;;;28.25;;
65174;SDS011;51761;42.126;24.752;2023-03-23T03:31:48;64.95;;;28.95;;
65174;SDS011;51761;42.126;24.752;2023-03-23T03:34:16;62.38;;;27.00;;
65174;SDS011;51761;42.126;24.752;2023-03-23T03:36:45;57.03;;;26.25;;
65174;SDS011;51761;42.126;24.752;2023-03-23T03:39:14;56.05;;;27.02;;
65174;SDS011;51761;42.126;24.752;2023-03-23T03:41:42;61.65;;;26.50;;
65174;SDS011;51761;42.126;24.752;2023-03-23T03:44:09;64.40;;;26.40;;
65174;SDS011;51761;42.126;24.752;2023-03-23T03:46:35;58.05;;;26.23;;
65174;SDS011;51761;42.126;24.752;2023-03-23T03:49:02;59.65;;;28.33;;
65174;SDS011;51761;42.126;24.752;2023-03-23T03:51:29;59.42;;;25.92;;
65174;SDS011;51761;42.126;24.752;2023-03-23T03:53:56;60.35;;;27.60;;
65174;SDS011;51761;42.126;24.752;2023-03-23T03:56:22;58.42;;;28.73;;
65174;SDS011;51761;42.126;24.752;2023-03-23T03:58:48;74.80;;;28.42;;
65174;SDS011;51761;42.126;24.752;2023-03-23T04:01:19;59.55;;;26.42;;
65174;SDS011;51761;42.126;24.752;2023-03-23T04:03:49;53.38;;;25.85;;
65174;SDS011;51761;42.126;24.752;2023-03-23T04:06:16;60.53;;;27.60;;
65174;SDS011;51761;42.126;24.752;2023-03-23T04:08:42;58.58;;;26.45;;
65174;SDS011;51761;42.126;24.752;2023-03-23T04:11:10;52.58;;;25.83;;
65174;SDS011;51761;42.126;24.752;2023-03-23T04:13:37;54.17;;;25.42;;
65174;SDS011;51761;42.126;24.752;2023-03-23T04:16:03;60.25;;;25.95;;
65174;SDS011;51761;42.126;24.752;2023-03-23T04:18:29;52.63;;;25.00;;
65174;SDS011;51761;42.126;24.752;2023-03-23T04:20:57;52.85;;;25.25;;
65174;SDS011;51761;42.126;24.752;2023-03-23T04:23:27;56.17;;;24.83;;
65174;SDS011;51761;42.126;24.752;2023-03-23T04:25:56;53.58;;;25.17;;
65174;SDS011;51761;42.126;24.752;2023-03-23T04:28:23;116.00;;;52.28;;
65174;SDS011;51761;42.126;24.752;2023-03-23T04:30:52;76.90;;;36.60;;
65174;SDS011;51761;42.126;24.752;2023-03-23T04:33:19;67.10;;;32.05;;
65174;SDS011;51761;42.126;24.752;2023-03-23T04:35:47;54.42;;;24.67;;
65174;SDS011;51761;42.126;24.752;2023-03-23T04:38:13;59.42;;;25.95;;
65174;SDS011;51761;42.126;24.752;2023-03-23T04:40:45;63.10;;;25.70;;
65174;SDS011;51761;42.126;24.752;2023-03-23T04:43:12;52.50;;;23.73;;
65174;SDS011;51761;42.126;24.752;2023-03-23T04:45:40;51.53;;;25.50;;
65174;SDS011;51761;42.126;24.752;2023-03-23T04:48:07;61.33;;;27.55;;
65174;SDS011;51761;42.126;24.752;2023-03-23T04:50:33;62.70;;;28.80;;
65174;SDS011;51761;42.126;24.752;2023-03-23T04:53:00;55.22;;;25.15;;
65174;SDS011;51761;42.126;24.752;2023-03-23T04:55:31;53.83;;;25.67;;
65174;SDS011;51761;42.126;24.752;2023-03-23T04:58:04;62.85;;;26.58;;
65174;SDS011;51761;42.126;24.752;2023-03-23T05:00:32;52.60;;;25.25;;
65174;SDS011;51761;42.126;24.752;2023-03-23T05:03:01;58.00;;;27.35;;
65174;SDS011;51761;42.126;24.752;2023-03-23T05:05:27;58.22;;;27.40;;
65174;SDS011;51761;42.126;24.752;2023-03-23T05:07:55;64.75;;;27.83;;
65174;SDS011;51761;42.126;24.752;2023-03-23T05:10:21;66.68;;;29.73;;
65174;SDS011;51761;42.126;24.752;2023-03-23T05:12:48;51.97;;;27.38;;
65174;SDS011;51761;42.126;24.752;2023-03-23T05:15:14;55.70;;;25.40;;
65174;SDS011;51761;42.126;24.752;2023-03-23T05:17:41;49.20;;;23.65;;
65174;SDS011;51761;42.126;24.752;2023-03-23T05:20:11;56.83;;;24.33;;
65174;SDS011;51761;42.126;24.752;2023-03-23T05:22:39;50.97;;;25.73;;
65174;SDS011;51761;42.126;24.752;2023-03-23T05:25:09;49.55;;;23.88;;
65174;SDS011;51761;42.126;24.752;2023-03-23T05:27:36;52.47;;;23.92;;
65174;SDS011;51761;42.126;24.752;2023-03-23T05:30:03;53.65;;;24.75;;
65174;SDS011;51761;42.126;24.752;2023-03-23T05:32:29;51.92;;;23.77;;
65174;SDS011;51761;42.126;24.752;2023-03-23T05:34:56;48.28;;;24.15;;
65174;SDS011;51761;42.126;24.752;2023-03-23T05:37:22;50.47;;;25.17;;
65174;SDS011;51761;42.126;24.752;2023-03-23T05:39:48;50.70;;;24.10;;
65174;SDS011;51761;42.126;24.752;2023-03-23T05:42:18;54.80;;;27.25;;
65174;SDS011;51761;42.126;24.752;2023-03-23T05:44:44;52.15;;;25.88;;
65174;SDS011;51761;42.126;24.752;2023-03-23T05:47:10;54.47;;;25.38;;
65174;SDS011;51761;42.126;24.752;2023-03-23T05:49:35;46.08;;;24.98;;
65174;SDS011;51761;42.126;24.752;2023-03-23T05:52:01;48.15;;;23.45;;
65174;SDS011;51761;42.126;24.752;2023-03-23T05:54:27;48.33;;;24.17;;
65174;SDS011;51761;42.126;24.752;2023-03-23T05:56:52;51.03;;;24.40;;
65174;SDS011;51761;42.126;24.752;2023-03-23T05:59:18;49.30;;;23.13;;
65174;SDS011;51761;42.126;24.752;2023-03-23T06:01:43;55.05;;;24.80;;
65174;SDS011;51761;42.126;24.752;2023-03-23T06:04:09;47.88;;;23.65;;
65174;SDS011;51761;42.126;24.752;2023-03-23T06:06:36;50.47;;;24.60;;
65174;SDS011;51761;42.126;24.752;2023-03-23T06:09:02;49.53;;;24.65;;
65174;SDS011;51761;42.126;24.752;2023-03-23T06:11:28;46.88;;;24.13;;
65174;SDS011;51761;42.126;24.752;2023-03-23T06:13:54;47.58;;;24.63;;
65174;SDS011;51761;42.126;24.752;2023-03-23T06:16:19;50.20;;;24.77;;
65174;SDS011;51761;42.126;24.752;2023-03-23T06:18:45;132.93;;;62.05;;
65174;SDS011;51761;42.126;24.752;2023-03-23T06:21:11;52.28;;;25.35;;
65174;SDS011;51761;42.126;24.752;2023-03-23T06:23:37;48.67;;;24.63;;
65174;SDS011;51761;42.126;24.752;2023-03-23T06:26:04;54.08;;;24.25;;
65174;SDS011;51761;42.126;24.752;2023-03-23T06:28:33;42.25;;;19.27;;
65174;SDS011;51761;42.126;24.752;2023-03-23T06:31:02;38.80;;;19.75;;
65174;SDS011;51761;42.126;24.752;2023-03-23T06:33:31;41.08;;;20.17;;
65174;SDS011;51761;42.126;24.752;2023-03-23T06:35:58;41.90;;;20.30;;
65174;SDS011;51761;42.126;24.752;2023-03-23T06:38:24;39.20;;;20.92;;
65174;SDS011;51761;42.126;24.752;2023-03-23T06:40:52;44.90;;;22.05;;
65174;SDS011;51761;42.126;24.752;2023-03-23T06:43:18;42.55;;;21.58;;
65174;SDS011;51761;42.126;24.752;2023-03-23T06:45:43;42.13;;;20.85;;
65174;SDS011;51761;42.126;24.752;2023-03-23T06:48:09;47.83;;;22.65;;
65174;SDS011;51761;42.126;24.752;2023-03-23T06:50:34;39.55;;;22.27;;
65174;SDS011;51761;42.126;24.752;2023-03-23T06:53:00;43.15;;;20.67;;
65174;SDS011;51761;42.126;24.752;2023-03-23T06:55:26;49.35;;;23.83;;
65174;SDS011;51761;42.126;24.752;2023-03-23T06:57:51;48.80;;;23.80;;
65174;SDS011;51761;42.126;24.752;2023-03-23T07:00:17;52.58;;;25.63;;
65174;SDS011;51761;42.126;24.752;2023-03-23T07:02:43;50.20;;;24.77;;
65174;SDS011;51761;42.126;24.752;2023-03-23T07:05:09;60.80;;;25.77;;
65174;SDS011;51761;42.126;24.752;2023-03-23T07:07:38;57.67;;;27.63;;
65174;SDS011;51761;42.126;24.752;2023-03-23T07:10:07;55.20;;;24.52;;
65174;SDS011;51761;42.126;24.752;2023-03-23T07:12:35;45.35;;;24.75;;
65174;SDS011;51761;42.126;24.752;2023-03-23T07:15:04;48.25;;;25.10;;
65174;SDS011;51761;42.126;24.752;2023-03-23T07:17:30;50.05;;;25.38;;
65174;SDS011;51761;42.126;24.752;2023-03-23T07:19:56;43.80;;;23.17;;
65174;SDS011;51761;42.126;24.752;2023-03-23T07:22:22;48.42;;;24.38;;
65174;SDS011;51761;42.126;24.752;2023-03-23T07:24:47;43.60;;;21.67;;
65174;SDS011;51761;42.126;24.752;2023-03-23T07:27:13;49.80;;;24.17;;
65174;SDS011;51761;42.126;24.752;2023-03-23T07:29:39;49.97;;;23.55;;
65174;SDS011;51761;42.126;24.752;2023-03-23T07:32:05;46.15;;;22.50;;
65174;SDS011;51761;42.126;24.752;2023-03-23T07:34:31;41.85;;;23.15;;
65174;SDS011;51761;42.126;24.752;2023-03-23T07:36:58;41.58;;;22.90;;
65174;SDS011;51761;42.126;24.752;2023-03-23T07:39:24;40.10;;;22.45;;
65174;SDS011;51761;42.126;24.752;2023-03-23T07:41:50;40.03;;;21.88;;
65174;SDS011;51761;42.126;24.752;2023-03-23T07:44:16;42.42;;;21.63;;
65174;SDS011;51761;42.126;24.752;2023-03-23T07:46:42;56.55;;;25.55;;
65174;SDS011;51761;42.126;24.752;2023-03-23T07:49:08;56.03;;;24.88;;
65174;SDS011;51761;42.126;24.752;2023-03-23T07:51:34;41.70;;;22.67;;
65174;SDS011;51761;42.126;24.752;2023-03-23T07:54:00;38.10;;;21.13;;
65174;SDS011;51761;42.126;24.752;2023-03-23T07:56:28;41.95;;;21.63;;
65174;SDS011;51761;42.126;24.752;2023-03-23T07:58:54;42.90;;;23.33;;
65174;SDS011;51761;42.126;24.752;2023-03-23T08:01:19;42.40;;;23.90;;
65174;SDS011;51761;42.126;24.752;2023-03-23T08:03:45;44.42;;;22.10;;
65174;SDS011;51761;42.126;24.752;2023-03-23T08:06:12;44.63;;;23.80;;
65174;SDS011;51761;42.126;24.752;2023-03-23T08:08:37;47.60;;;23.90;;
65174;SDS011;51761;42.126;24.752;2023-03-23T08:11:05;48.20;;;23.63;;
65174;SDS011;51761;42.126;24.752;2023-03-23T08:13:31;45.60;;;22.80;;
65174;SDS011;51761;42.126;24.752;2023-03-23T08:15:58;45.90;;;22.67;;
65174;SDS011;51761;42.126;24.752;2023-03-23T08:18:25;43.58;;;22.90;;
65174;SDS011;51761;42.126;24.752;2023-03-23T08:20:51;41.03;;;22.33;;
65174;SDS011;51761;42.126;24.752;2023-03-23T08:23:18;46.15;;;21.23;;
65174;SDS011;51761;42.126;24.752;2023-03-23T08:25:44;35.97;;;19.92;;
65174;SDS011;51761;42.126;24.752;2023-03-23T08:28:10;25.40;;;15.85;;
65174;SDS011;51761;42.126;24.752;2023-03-23T08:30:35;49.30;;;22.35;;
65174;SDS011;51761;42.126;24.752;2023-03-23T08:33:03;50.72;;;23.30;;
65174;SDS011;51761;42.126;24.752;2023-03-23T08:35:30;44.35;;;22.30;;
65174;SDS011;51761;42.126;24.752;2023-03-23T08:37:55;34.88;;;20.30;;
65174;SDS011;51761;42.126;24.752;2023-03-23T08:40:22;45.63;;;20.50;;
65174;SDS011;51761;42.126;24.752;2023-03-23T08:42:49;42.55;;;21.88;;
65174;SDS011;51761;42.126;24.752;2023-03-23T08:45:24;35.88;;;20.88;;
65174;SDS011;51761;42.126;24.752;2023-03-23T08:47:51;40.90;;;20.58;;
65174;SDS011;51761;42.126;24.752;2023-03-23T08:50:19;42.50;;;20.95;;
65174;SDS011;51761;42.126;24.752;2023-03-23T08:52:51;41.35;;;21.27;;
65174;SDS011;51761;42.126;24.752;2023-03-23T08:55:18;43.65;;;22.35;;
65174;SDS011;51761;42.126;24.752;2023-03-23T08:57:43;46.90;;;22.52;;
65174;SDS011;51761;42.126;24.752;2023-03-23T09:00:11;39.00;;;20.65;;
65174;SDS011;51761;42.126;24.752;2023-03-23T09:02:47;32.15;;;19.70;;
65174;SDS011;51761;42.126;24.752;2023-03-23T09:05:14;39.20;;;18.60;;
65174;SDS011;51761;42.126;24.752;2023-03-23T09:07:42;34.05;;;20.60;;
65174;SDS011;51761;42.126;24.752;2023-03-23T09:10:09;36.70;;;18.65;;
65174;SDS011;51761;42.126;24.752;2023-03-23T09:12:36;31.40;;;16.80;;
65174;SDS011;51761;42.126;24.752;2023-03-23T09:15:03;37.35;;;18.45;;
65174;SDS011;51761;42.126;24.752;2023-03-23T09:17:38;29.38;;;17.05;;
65174;SDS011;51761;42.126;24.752;2023-03-23T09:20:07;38.13;;;18.63;;
65174;SDS011;51761;42.126;24.752;2023-03-23T09:22:42;34.60;;;17.60;;
65174;SDS011;51761;42.126;24.752;2023-03-23T09:25:10;30.70;;;16.75;;
65174;SDS011;51761;42.126;24.752;2023-03-23T09:27:38;43.15;;;19.02;;
65174;SDS011;51761;42.126;24.752;2023-03-23T09:30:05;19.85;;;12.90;;
65174;SDS011;51761;42.126;24.752;2023-03-23T09:32:33;19.85;;;12.45;;
65174;SDS011;51761;42.126;24.752;2023-03-23T09:35:02;22.13;;;11.48;;
65174;SDS011;51761;42.126;24.752;2023-03-23T09:37:31;22.25;;;12.35;;
65174;SDS011;51761;42.126;24.752;2023-03-23T09:39:58;20.00;;;12.65;;
65174;SDS011;51761;42.126;24.752;2023-03-23T09:42:42;25.33;;;14.25;;
65174;SDS011;51761;42.126;24.752;2023-03-23T09:45:56;33.60;;;14.93;;
65174;SDS011;51761;42.126;24.752;2023-03-23T09:50:48;25.95;;;12.65;;
65174;SDS011;51761;42.126;24.752;2023-03-23T09:53:26;28.05;;;14.68;;
65174;SDS011;51761;42.126;24.752;2023-03-23T09:56:00;22.98;;;12.98;;
65174;SDS011;51761;42.126;24.752;2023-03-23T09:58:27;28.73;;;16.33;;
65174;SDS011;51761;42.126;24.752;2023-03-23T10:01:13;19.30;;;12.30;;
65174;SDS011;51761;42.126;24.752;2023-03-23T10:03:43;34.40;;;13.57;;
65174;SDS011;51761;42.126;24.752;2023-03-23T10:06:11;23.98;;;12.52;;
65174;SDS011;51761;42.126;24.752;2023-03-23T10:08:44;21.52;;;12.30;;
65174;SDS011;51761;42.126;24.752;2023-03-23T10:22:36;16.42;;;7.90;;
65174;SDS011;51761;42.126;24.752;2023-03-23T10:27:59;17.30;;;9.63;;
65174;SDS011;51761;42.126;24.752;2023-03-23T10:36:22;19.70;;;12.02;;
65174;SDS011;51761;42.126;24.752;2023-03-23T10:39:00;30.98;;;12.38;;
65174;SDS011;51761;42.126;24.752;2023-03-23T10:41:39;18.83;;;11.60;;
65174;SDS011;51761;42.126;24.752;2023-03-23T10:44:39;25.92;;;12.10;;
65174;SDS011;51761;42.126;24.752;2023-03-23T10:46:59;15.10;;;9.60;;
65174;SDS011;51761;42.126;24.752;2023-03-23T10:49:28;13.30;;;7.60;;
65174;SDS011;51761;42.126;24.752;2023-03-23T10:55:02;15.55;;;9.27;;
65174;SDS011;51761;42.126;24.752;2023-03-23T10:57:34;30.60;;;10.70;;
65174;SDS011;51761;42.126;24.752;2023-03-23T11:02:40;18.10;;;9.10;;
65174;SDS011;51761;42.126;24.752;2023-03-23T11:07:52;16.50;;;9.15;;
65174;SDS011;51761;42.126;24.752;2023-03-23T11:10:26;17.95;;;9.65;;
65174;SDS011;51761;42.126;24.752;2023-03-23T11:12:59;16.40;;;7.90;;
65174;SDS011;51761;42.126;24.752;2023-03-23T11:17:54;13.13;;;6.88;;
65174;SDS011;51761;42.126;24.752;2023-03-23T11:20:25;13.10;;;6.47;;
65174;SDS011;51761;42.126;24.752;2023-03-23T11:22:53;14.95;;;7.03;;
65174;SDS011;51761;42.126;24.752;2023-03-23T11:25:20;11.13;;;6.63;;
65174;SDS011;51761;42.126;24.752;2023-03-23T11:27:46;11.73;;;5.93;;
65174;SDS011;51761;42.126;24.752;2023-03-23T11:30:30;7.47;;;5.35;;
65174;SDS011;51761;42.126;24.752;2023-03-23T11:32:58;9.32;;;5.45;;
65174;SDS011;51761;42.126;24.752;2023-03-23T11:35:27;8.60;;;4.63;;
65174;SDS011;51761;42.126;24.752;2023-03-23T11:37:55;8.73;;;4.07;;
65174;SDS011;51761;42.126;24.752;2023-03-23T11:40:23;7.35;;;5.25;;
65174;SDS011;51761;42.126;24.752;2023-03-23T11:45:19;16.00;;;5.90;;
65174;SDS011;51761;42.126;24.752;2023-03-23T11:50:53;10.70;;;5.47;;
65174;SDS011;51761;42.126;24.752;2023-03-23T11:53:37;15.02;;;7.72;;
65174;SDS011;51761;42.126;24.752;2023-03-23T11:56:11;14.38;;;7.68;;
65174;SDS011;51761;42.126;24.752;2023-03-23T11:58:37;13.43;;;7.93;;
65174;SDS011;51761;42.126;24.752;2023-03-23T12:14:53;16.00;;;9.43;;
65174;SDS011;51761;42.126;24.752;2023-03-23T12:28:29;12.98;;;8.48;;
65174;SDS011;51761;42.126;24.752;2023-03-23T12:33:48;17.60;;;8.10;;
65174;SDS011;51761;42.126;24.752;2023-03-23T12:44:11;13.30;;;7.18;;
65174;SDS011;51761;42.126;24.752;2023-03-23T12:49:36;11.40;;;6.68;;
65174;SDS011;51761;42.126;24.752;2023-03-23T13:10:48;9.90;;;5.88;;
65174;SDS011;51761;42.126;24.752;2023-03-23T13:13:21;10.85;;;6.10;;
65174;SDS011;51761;42.126;24.752;2023-03-23T13:18:25;8.38;;;5.50;;
65174;SDS011;51761;42.126;24.752;2023-03-23T13:24:13;8.98;;;5.18;;
65174;SDS011;51761;42.126;24.752;2023-03-23T13:26:42;7.63;;;4.53;;
65174;SDS011;51761;42.126;24.752;2023-03-23T13:29:13;10.00;;;5.38;;
65174;SDS011;51761;42.126;24.752;2023-03-23T13:31:44;6.68;;;4.60;;
65174;SDS011;51761;42.126;24.752;2023-03-23T13:36:41;8.10;;;4.63;;
65174;SDS011;51761;42.126;24.752;2023-03-23T13:39:22;7.00;;;5.00;;
65174;SDS011;51761;42.126;24.752;2023-03-23T13:47:21;7.10;;;3.97;;
65174;SDS011;51761;42.126;24.752;2023-03-23T14:05:37;8.52;;;4.25;;
65174;SDS011;51761;42.126;24.752;2023-03-23T14:08:10;10.93;;;4.38;;
65174;SDS011;51761;42.126;24.752;2023-03-23T14:10:40;9.40;;;4.32;;
65174;SDS011;51761;42.126;24.752;2023-03-23T14:13:22;10.85;;;4.70;;
65174;SDS011;51761;42.126;24.752;2023-03-23T14:15:55;7.68;;;4.65;;
65174;SDS011;51761;42.126;24.752;2023-03-23T14:18:23;7.75;;;4.40;;
65174;SDS011;51761;42.126;24.752;2023-03-23T14:20:54;6.10;;;4.28;;
65174;SDS011;51761;42.126;24.752;2023-03-23T14:23:20;7.13;;;4.38;;
65174;SDS011;51761;42.126;24.752;2023-03-23T14:26:02;6.53;;;4.22;;
65174;SDS011;51761;42.126;24.752;2023-03-23T14:28:39;7.80;;;4.28;;
65174;SDS011;51761;42.126;24.752;2023-03-23T14:31:26;6.32;;;4.22;;
65174;SDS011;51761;42.126;24.752;2023-03-23T14:33:53;6.93;;;4.40;;
65174;SDS011;51761;42.126;24.752;2023-03-23T14:36:24;7.60;;;3.85;;
65174;SDS011;51761;42.126;24.752;2023-03-23T14:41:36;8.73;;;4.70;;
65174;SDS011;51761;42.126;24.752;2023-03-23T14:44:03;7.40;;;4.32;;
65174;SDS011;51761;42.126;24.752;2023-03-23T14:46:33;9.73;;;4.45;;
65174;SDS011;51761;42.126;24.752;2023-03-23T14:49:01;9.38;;;5.22;;
65174;SDS011;51761;42.126;24.752;2023-03-23T14:51:28;7.70;;;4.70;;
65174;SDS011;51761;42.126;24.752;2023-03-23T14:53:54;7.55;;;4.82;;
65174;SDS011;51761;42.126;24.752;2023-03-23T14:56:20;7.10;;;4.43;;
65174;SDS011;51761;42.126;24.752;2023-03-23T14:58:51;7.25;;;4.90;;
65174;SDS011;51761;42.126;24.752;2023-03-23T15:01:18;7.40;;;4.05;;
65174;SDS011;51761;42.126;24.752;2023-03-23T15:03:57;11.70;;;4.95;;
65174;SDS011;51761;42.126;24.752;2023-03-23T15:06:26;15.25;;;7.15;;
65174;SDS011;51761;42.126;24.752;2023-03-23T15:08:58;4.90;;;3.75;;
65174;SDS011;51761;42.126;24.752;2023-03-23T15:11:33;14.07;;;5.85;;
65174;SDS011;51761;42.126;24.752;2023-03-23T15:14:03;8.93;;;4.50;;
65174;SDS011;51761;42.126;24.752;2023-03-23T15:16:35;9.02;;;5.30;;
65174;SDS011;51761;42.126;24.752;2023-03-23T15:19:03;6.78;;;4.30;;
65174;SDS011;51761;42.126;24.752;2023-03-23T15:21:35;6.10;;;4.20;;
65174;SDS011;51761;42.126;24.752;2023-03-23T15:24:46;6.50;;;4.15;;
65174;SDS011;51761;42.126;24.752;2023-03-23T15:29:34;16.80;;;6.80;;
65174;SDS011;51761;42.126;24.752;2023-03-23T15:32:24;6.40;;;4.18;;
65174;SDS011;51761;42.126;24.752;2023-03-23T15:34:52;9.82;;;5.32;;
65174;SDS011;51761;42.126;24.752;2023-03-23T15:37:24;7.35;;;4.20;;
65174;SDS011;51761;42.126;24.752;2023-03-23T15:39:52;7.00;;;4.20;;
65174;SDS011;51761;42.126;24.752;2023-03-23T15:42:28;9.48;;;4.82;;
65174;SDS011;51761;42.126;24.752;2023-03-23T15:44:58;8.43;;;5.07;;
65174;SDS011;51761;42.126;24.752;2023-03-23T15:47:43;11.05;;;5.43;;
65174;SDS011;51761;42.126;24.752;2023-03-23T15:52:44;20.02;;;8.85;;
65174;SDS011;51761;42.126;24.752;2023-03-23T15:58:07;12.18;;;7.55;;
65174;SDS011;51761;42.126;24.752;2023-03-23T16:00:35;14.93;;;7.43;;
65174;SDS011;51761;42.126;24.752;2023-03-23T16:03:04;13.18;;;7.03;;
65174;SDS011;51761;42.126;24.752;2023-03-23T16:05:32;19.92;;;9.20;;
65174;SDS011;51761;42.126;24.752;2023-03-23T16:07:59;18.08;;;8.80;;
65174;SDS011;51761;42.126;24.752;2023-03-23T16:10:25;14.32;;;8.32;;
65174;SDS011;51761;42.126;24.752;2023-03-23T16:12:52;12.70;;;6.45;;
65174;SDS011;51761;42.126;24.752;2023-03-23T16:15:17;17.17;;;6.82;;
65174;SDS011;51761;42.126;24.752;2023-03-23T16:17:43;14.00;;;6.60;;
65174;SDS011;51761;42.126;24.752;2023-03-23T16:20:17;12.32;;;6.97;;
65174;SDS011;51761;42.126;24.752;2023-03-23T16:25:11;13.20;;;6.75;;
65174;SDS011;51761;42.126;24.752;2023-03-23T16:27:37;10.35;;;6.63;;
65174;SDS011;51761;42.126;24.752;2023-03-23T16:32:49;13.13;;;6.15;;
65174;SDS011;51761;42.126;24.752;2023-03-23T16:35:15;9.30;;;5.80;;
65174;SDS011;51761;42.126;24.752;2023-03-23T16:37:44;11.70;;;6.35;;
65174;SDS011;51761;42.126;24.752;2023-03-23T16:40:11;11.63;;;6.60;;
65174;SDS011;51761;42.126;24.752;2023-03-23T16:42:38;10.63;;;7.03;;
65174;SDS011;51761;42.126;24.752;2023-03-23T16:45:05;13.60;;;7.30;;
65174;SDS011;51761;42.126;24.752;2023-03-23T16:47:31;20.67;;;9.38;;
65174;SDS011;51761;42.126;24.752;2023-03-23T16:49:57;13.30;;;6.85;;
65174;SDS011;51761;42.126;24.752;2023-03-23T16:52:22;13.18;;;7.30;;
65174;SDS011;51761;42.126;24.752;2023-03-23T16:54:48;20.55;;;7.07;;
65174;SDS011;51761;42.126;24.752;2023-03-23T16:57:14;15.57;;;7.97;;
65174;SDS011;51761;42.126;24.752;2023-03-23T16:59:40;15.80;;;7.78;;
65174;SDS011;51761;42.126;24.752;2023-03-23T17:02:08;16.33;;;8.73;;
65174;SDS011;51761;42.126;24.752;2023-03-23T17:04:41;18.92;;;9.77;;
65174;SDS011;51761;42.126;24.752;2023-03-23T17:07:08;24.38;;;10.30;;
65174;SDS011;51761;42.126;24.752;2023-03-23T17:09:34;16.35;;;8.30;;
65174;SDS011;51761;42.126;24.752;2023-03-23T17:11:59;18.98;;;7.28;;
65174;SDS011;51761;42.126;24.752;2023-03-23T17:14:25;19.63;;;8.82;;
65174;SDS011;51761;42.126;24.752;2023-03-23T17:16:50;18.27;;;9.02;;